sensor_id;sensor_type;location;lat;lon;timestamp;temperature;humidity
29939;DHT22;16799;50.844;5.304;2022-08-01T00:02:13;20.80;99.90
29939;DHT22;16799;50.844;5.304;2022-08-01T00:04:38;20.70;99.90
29939;DHT22;16799;50.844;5.304;2022-08-01T00:07:04;20.70;99.90
29939;DHT22;16799;50.844;5.304;2022-08-01T00:09:29;20.70;99.90
29939;DHT22;16799;50.844;5.304;2022-08-01T00:11:55;20.70;99.90
29939;DHT22;16799;50.844;5.304;2022-08-01T00:14:21;20.60;99.90
29939;DHT22;16799;50.844;5.304;2022-08-01T00:16:46;20.60;99.90
29939;DHT22;16799;50.844;5.304;2022-08-01T00:19:12;20.60;99.90
29939;DHT22;16799;50.844;5.304;2022-08-01T00:21:38;20.60;99.90
29939;DHT22;16799;50.844;5.304;2022-08-01T00:24:04;20.60;99.90
29939;DHT22;16799;50.844;5.304;2022-08-01T00:26:29;20.50;99.90
29939;DHT22;16799;50.844;5.304;2022-08-01T00:28:55;20.50;99.90
29939;DHT22;16799;50.844;5.304;2022-08-01T00:31:21;20.40;99.90
29939;DHT22;16799;50.844;5.304;2022-08-01T00:33:46;20.40;99.90
29939;DHT22;16799;50.844;5.304;2022-08-01T00:36:12;20.50;99.90
29939;DHT22;16799;50.844;5.304;2022-08-01T00:38:38;20.40;99.90
29939;DHT22;16799;50.844;5.304;2022-08-01T00:41:03;20.40;99.90
29939;DHT22;16799;50.844;5.304;2022-08-01T00:43:29;20.40;99.90
29939;DHT22;16799;50.844;5.304;2022-08-01T00:45:54;20.30;99.90
29939;DHT22;16799;50.844;5.304;2022-08-01T00:48:20;20.40;99.90
29939;DHT22;16799;50.844;5.304;2022-08-01T00:50:46;20.40;99.90
29939;DHT22;16799;50.844;5.304;2022-08-01T00:53:12;20.40;99.90
29939;DHT22;16799;50.844;5.304;2022-08-01T00:55:38;20.40;99.90
29939;DHT22;16799;50.844;5.304;2022-08-01T00:58:04;20.40;99.90
29939;DHT22;16799;50.844;5.304;2022-08-01T01:00:30;20.50;99.90
29939;DHT22;16799;50.844;5.304;2022-08-01T01:02:57;20.50;99.90
29939;DHT22;16799;50.844;5.304;2022-08-01T01:05:23;20.50;99.90
29939;DHT22;16799;50.844;5.304;2022-08-01T01:10:51;20.50;99.90
29939;DHT22;16799;50.844;5.304;2022-08-01T01:13:38;20.50;99.90
29939;DHT22;16799;50.844;5.304;2022-08-01T01:16:12;20.50;99.90
29939;DHT22;16799;50.844;5.304;2022-08-01T01:18:51;20.50;99.90
29939;DHT22;16799;50.844;5.304;2022-08-01T01:27:49;20.30;99.90
29939;DHT22;16799;50.844;5.304;2022-08-01T01:29:50;20.40;99.90
29939;DHT22;16799;50.844;5.304;2022-08-01T01:32:22;20.40;99.90
29939;DHT22;16799;50.844;5.304;2022-08-01T01:34:50;20.30;99.90
29939;DHT22;16799;50.844;5.304;2022-08-01T01:37:21;20.30;99.90
29939;DHT22;16799;50.844;5.304;2022-08-01T01:39:50;20.30;99.90
29939;DHT22;16799;50.844;5.304;2022-08-01T01:42:17;20.30;99.90
29939;DHT22;16799;50.844;5.304;2022-08-01T01:44:44;20.30;99.90
29939;DHT22;16799;50.844;5.304;2022-08-01T01:47:12;20.30;99.90
29939;DHT22;16799;50.844;5.304;2022-08-01T01:49:40;20.30;99.90
29939;DHT22;16799;50.844;5.304;2022-08-01T01:52:07;20.30;99.90
29939;DHT22;16799;50.844;5.304;2022-08-01T01:54:37;20.30;99.90
29939;DHT22;16799;50.844;5.304;2022-08-01T01:57:05;20.30;99.90
29939;DHT22;16799;50.844;5.304;2022-08-01T01:59:34;20.40;99.90
29939;DHT22;16799;50.844;5.304;2022-08-01T02:02:05;20.30;99.90
29939;DHT22;16799;50.844;5.304;2022-08-01T02:04:33;20.20;99.90
29939;DHT22;16799;50.844;5.304;2022-08-01T02:07:01;20.10;99.90
29939;DHT22;16799;50.844;5.304;2022-08-01T02:09:28;20.10;99.90
29939;DHT22;16799;50.844;5.304;2022-08-01T02:11:54;20.00;99.90
29939;DHT22;16799;50.844;5.304;2022-08-01T02:14:22;19.90;99.90
29939;DHT22;16799;50.844;5.304;2022-08-01T02:16:49;19.90;99.90
29939;DHT22;16799;50.844;5.304;2022-08-01T02:19:18;19.80;99.90
29939;DHT22;16799;50.844;5.304;2022-08-01T02:21:53;19.80;99.90
29939;DHT22;16799;50.844;5.304;2022-08-01T02:24:48;19.80;99.90
29939;DHT22;16799;50.844;5.304;2022-08-01T02:27:20;19.70;99.90
29939;DHT22;16799;50.844;5.304;2022-08-01T02:30:13;19.70;99.90
29939;DHT22;16799;50.844;5.304;2022-08-01T02:32:49;19.70;99.90
29939;DHT22;16799;50.844;5.304;2022-08-01T02:35:28;19.60;99.90
29939;DHT22;16799;50.844;5.304;2022-08-01T02:37:56;19.70;99.90
29939;DHT22;16799;50.844;5.304;2022-08-01T02:40:23;19.80;99.90
29939;DHT22;16799;50.844;5.304;2022-08-01T02:42:51;19.80;99.90
29939;DHT22;16799;50.844;5.304;2022-08-01T02:45:18;19.70;99.90
29939;DHT22;16799;50.844;5.304;2022-08-01T02:47:47;19.70;99.90
29939;DHT22;16799;50.844;5.304;2022-08-01T02:50:14;19.70;99.90
29939;DHT22;16799;50.844;5.304;2022-08-01T02:52:44;19.60;99.90
29939;DHT22;16799;50.844;5.304;2022-08-01T02:55:12;19.60;99.90
29939;DHT22;16799;50.844;5.304;2022-08-01T02:57:39;19.70;99.90
29939;DHT22;16799;50.844;5.304;2022-08-01T03:00:06;19.70;99.90
29939;DHT22;16799;50.844;5.304;2022-08-01T03:02:34;19.70;99.90
29939;DHT22;16799;50.844;5.304;2022-08-01T03:05:01;19.80;99.90
29939;DHT22;16799;50.844;5.304;2022-08-01T03:07:28;19.80;99.90
29939;DHT22;16799;50.844;5.304;2022-08-01T03:09:56;19.90;99.90
29939;DHT22;16799;50.844;5.304;2022-08-01T03:12:25;19.90;99.90
29939;DHT22;16799;50.844;5.304;2022-08-01T03:14:54;19.90;99.90
29939;DHT22;16799;50.844;5.304;2022-08-01T03:17:23;19.90;99.90
29939;DHT22;16799;50.844;5.304;2022-08-01T03:19:51;19.90;99.90
29939;DHT22;16799;50.844;5.304;2022-08-01T03:22:18;19.80;99.90
29939;DHT22;16799;50.844;5.304;2022-08-01T03:24:49;19.90;99.90
29939;DHT22;16799;50.844;5.304;2022-08-01T03:27:18;19.90;99.90
29939;DHT22;16799;50.844;5.304;2022-08-01T03:29:45;19.90;99.90
29939;DHT22;16799;50.844;5.304;2022-08-01T03:32:13;19.90;99.90
29939;DHT22;16799;50.844;5.304;2022-08-01T03:34:40;19.80;99.90
29939;DHT22;16799;50.844;5.304;2022-08-01T03:37:11;19.80;99.90
29939;DHT22;16799;50.844;5.304;2022-08-01T03:39:45;19.90;99.90
29939;DHT22;16799;50.844;5.304;2022-08-01T03:42:16;19.90;99.90
29939;DHT22;16799;50.844;5.304;2022-08-01T03:44:54;19.90;99.90
29939;DHT22;16799;50.844;5.304;2022-08-01T03:47:24;19.80;99.90
29939;DHT22;16799;50.844;5.304;2022-08-01T03:49:52;19.80;99.90
29939;DHT22;16799;50.844;5.304;2022-08-01T03:52:19;20.00;99.90
29939;DHT22;16799;50.844;5.304;2022-08-01T03:54:47;20.00;99.90
29939;DHT22;16799;50.844;5.304;2022-08-01T03:57:15;20.00;99.90
29939;DHT22;16799;50.844;5.304;2022-08-01T03:59:42;19.90;99.90
29939;DHT22;16799;50.844;5.304;2022-08-01T04:02:08;19.90;99.90
29939;DHT22;16799;50.844;5.304;2022-08-01T04:04:34;19.90;99.90
29939;DHT22;16799;50.844;5.304;2022-08-01T04:07:01;19.90;99.90
29939;DHT22;16799;50.844;5.304;2022-08-01T04:09:32;20.00;99.90
29939;DHT22;16799;50.844;5.304;2022-08-01T04:12:01;20.00;99.90
29939;DHT22;16799;50.844;5.304;2022-08-01T04:14:27;20.00;99.90
29939;DHT22;16799;50.844;5.304;2022-08-01T04:16:54;20.10;99.90
29939;DHT22;16799;50.844;5.304;2022-08-01T04:19:20;20.00;99.90
29939;DHT22;16799;50.844;5.304;2022-08-01T04:21:46;20.00;99.90
29939;DHT22;16799;50.844;5.304;2022-08-01T04:24:17;20.00;99.90
29939;DHT22;16799;50.844;5.304;2022-08-01T04:26:46;20.00;99.90
29939;DHT22;16799;50.844;5.304;2022-08-01T04:29:14;20.10;99.90
29939;DHT22;16799;50.844;5.304;2022-08-01T04:31:43;20.00;99.90
29939;DHT22;16799;50.844;5.304;2022-08-01T04:34:12;19.90;99.90
29939;DHT22;16799;50.844;5.304;2022-08-01T04:36:39;19.90;99.90
29939;DHT22;16799;50.844;5.304;2022-08-01T04:39:08;19.90;99.90
29939;DHT22;16799;50.844;5.304;2022-08-01T04:41:36;20.00;99.90
29939;DHT22;16799;50.844;5.304;2022-08-01T04:44:03;20.20;99.90
29939;DHT22;16799;50.844;5.304;2022-08-01T04:46:29;20.20;99.90
29939;DHT22;16799;50.844;5.304;2022-08-01T04:48:58;20.30;99.90
29939;DHT22;16799;50.844;5.304;2022-08-01T04:51:24;20.30;99.90
29939;DHT22;16799;50.844;5.304;2022-08-01T04:53:50;20.20;99.90
29939;DHT22;16799;50.844;5.304;2022-08-01T04:56:19;20.20;99.90
29939;DHT22;16799;50.844;5.304;2022-08-01T04:58:46;20.20;99.90
29939;DHT22;16799;50.844;5.304;2022-08-01T05:01:12;20.10;99.90
29939;DHT22;16799;50.844;5.304;2022-08-01T05:03:38;20.00;99.90
29939;DHT22;16799;50.844;5.304;2022-08-01T05:06:03;19.80;99.90
29939;DHT22;16799;50.844;5.304;2022-08-01T05:08:29;19.70;99.90
29939;DHT22;16799;50.844;5.304;2022-08-01T05:10:55;19.70;99.90
29939;DHT22;16799;50.844;5.304;2022-08-01T05:13:21;19.70;99.90
29939;DHT22;16799;50.844;5.304;2022-08-01T05:15:46;19.80;99.90
29939;DHT22;16799;50.844;5.304;2022-08-01T05:18:12;19.80;99.90
29939;DHT22;16799;50.844;5.304;2022-08-01T05:20:38;19.80;99.90
29939;DHT22;16799;50.844;5.304;2022-08-01T05:23:06;19.90;99.90
29939;DHT22;16799;50.844;5.304;2022-08-01T05:25:32;19.80;99.90
29939;DHT22;16799;50.844;5.304;2022-08-01T05:27:58;19.70;99.90
29939;DHT22;16799;50.844;5.304;2022-08-01T05:30:24;19.70;99.90
29939;DHT22;16799;50.844;5.304;2022-08-01T05:32:50;19.70;99.90
29939;DHT22;16799;50.844;5.304;2022-08-01T05:35:15;19.70;99.90
29939;DHT22;16799;50.844;5.304;2022-08-01T05:37:41;19.70;99.90
29939;DHT22;16799;50.844;5.304;2022-08-01T05:40:07;19.70;99.90
29939;DHT22;16799;50.844;5.304;2022-08-01T05:42:33;19.80;99.90
29939;DHT22;16799;50.844;5.304;2022-08-01T05:44:58;19.90;99.90
29939;DHT22;16799;50.844;5.304;2022-08-01T05:47:24;19.90;99.90
29939;DHT22;16799;50.844;5.304;2022-08-01T05:49:50;19.90;99.90
29939;DHT22;16799;50.844;5.304;2022-08-01T05:52:15;19.80;99.90
29939;DHT22;16799;50.844;5.304;2022-08-01T05:54:41;19.80;99.90
29939;DHT22;16799;50.844;5.304;2022-08-01T05:57:07;19.80;99.90
29939;DHT22;16799;50.844;5.304;2022-08-01T05:59:32;19.90;99.90
29939;DHT22;16799;50.844;5.304;2022-08-01T06:01:58;19.70;99.90
29939;DHT22;16799;50.844;5.304;2022-08-01T06:04:24;19.70;99.90
29939;DHT22;16799;50.844;5.304;2022-08-01T06:06:49;19.60;99.90
29939;DHT22;16799;50.844;5.304;2022-08-01T06:09:15;19.70;99.90
29939;DHT22;16799;50.844;5.304;2022-08-01T06:11:41;19.70;99.90
29939;DHT22;16799;50.844;5.304;2022-08-01T06:14:06;19.70;99.90
29939;DHT22;16799;50.844;5.304;2022-08-01T06:16:32;19.70;99.90
29939;DHT22;16799;50.844;5.304;2022-08-01T06:18:58;19.80;99.90
29939;DHT22;16799;50.844;5.304;2022-08-01T06:21:23;19.80;99.90
29939;DHT22;16799;50.844;5.304;2022-08-01T06:23:49;19.80;99.90
29939;DHT22;16799;50.844;5.304;2022-08-01T06:26:18;19.90;99.90
29939;DHT22;16799;50.844;5.304;2022-08-01T06:28:43;20.00;99.90
29939;DHT22;16799;50.844;5.304;2022-08-01T06:31:09;19.90;99.90
29939;DHT22;16799;50.844;5.304;2022-08-01T06:33:37;19.80;99.90
29939;DHT22;16799;50.844;5.304;2022-08-01T06:36:03;19.50;99.90
29939;DHT22;16799;50.844;5.304;2022-08-01T06:38:29;19.30;99.90
29939;DHT22;16799;50.844;5.304;2022-08-01T06:40:54;19.20;99.90
29939;DHT22;16799;50.844;5.304;2022-08-01T06:43:20;19.20;99.90
29939;DHT22;16799;50.844;5.304;2022-08-01T06:45:47;19.20;99.90
29939;DHT22;16799;50.844;5.304;2022-08-01T06:48:13;19.20;99.90
29939;DHT22;16799;50.844;5.304;2022-08-01T06:50:38;19.20;99.90
29939;DHT22;16799;50.844;5.304;2022-08-01T06:53:04;19.30;99.90
29939;DHT22;16799;50.844;5.304;2022-08-01T06:55:30;19.20;99.90
29939;DHT22;16799;50.844;5.304;2022-08-01T06:57:56;19.30;99.90
29939;DHT22;16799;50.844;5.304;2022-08-01T07:00:23;19.30;99.90
29939;DHT22;16799;50.844;5.304;2022-08-01T07:02:52;19.40;99.90
29939;DHT22;16799;50.844;5.304;2022-08-01T07:05:18;19.60;99.90
29939;DHT22;16799;50.844;5.304;2022-08-01T07:07:43;19.60;99.90
29939;DHT22;16799;50.844;5.304;2022-08-01T07:10:09;19.90;99.90
29939;DHT22;16799;50.844;5.304;2022-08-01T07:12:35;20.10;99.90
29939;DHT22;16799;50.844;5.304;2022-08-01T07:15:07;20.10;99.90
29939;DHT22;16799;50.844;5.304;2022-08-01T07:17:37;20.60;99.90
29939;DHT22;16799;50.844;5.304;2022-08-01T07:20:03;21.00;99.90
29939;DHT22;16799;50.844;5.304;2022-08-01T07:22:29;21.40;99.90
29939;DHT22;16799;50.844;5.304;2022-08-01T07:24:54;21.50;99.90
29939;DHT22;16799;50.844;5.304;2022-08-01T07:27:20;21.40;99.90
29939;DHT22;16799;50.844;5.304;2022-08-01T07:29:46;21.30;99.90
29939;DHT22;16799;50.844;5.304;2022-08-01T07:32:11;21.10;99.90
29939;DHT22;16799;50.844;5.304;2022-08-01T07:34:37;21.10;99.90
29939;DHT22;16799;50.844;5.304;2022-08-01T07:37:03;21.00;99.90
29939;DHT22;16799;50.844;5.304;2022-08-01T07:39:28;20.90;99.90
29939;DHT22;16799;50.844;5.304;2022-08-01T07:41:54;21.00;99.90
29939;DHT22;16799;50.844;5.304;2022-08-01T07:44:19;21.30;99.90
29939;DHT22;16799;50.844;5.304;2022-08-01T07:46:45;21.50;99.90
29939;DHT22;16799;50.844;5.304;2022-08-01T07:49:11;21.40;99.90
29939;DHT22;16799;50.844;5.304;2022-08-01T07:51:36;21.40;99.90
29939;DHT22;16799;50.844;5.304;2022-08-01T07:54:03;21.30;99.90
29939;DHT22;16799;50.844;5.304;2022-08-01T07:56:29;21.20;99.90
29939;DHT22;16799;50.844;5.304;2022-08-01T07:58:54;21.30;99.90
29939;DHT22;16799;50.844;5.304;2022-08-01T08:01:20;21.40;99.90
29939;DHT22;16799;50.844;5.304;2022-08-01T08:03:46;21.80;99.90
29939;DHT22;16799;50.844;5.304;2022-08-01T08:06:11;22.00;99.90
29939;DHT22;16799;50.844;5.304;2022-08-01T08:08:37;21.90;99.90
29939;DHT22;16799;50.844;5.304;2022-08-01T08:11:03;21.80;99.90
29939;DHT22;16799;50.844;5.304;2022-08-01T08:13:29;21.90;99.90
29939;DHT22;16799;50.844;5.304;2022-08-01T08:15:54;22.00;99.90
29939;DHT22;16799;50.844;5.304;2022-08-01T08:18:21;21.90;99.90
29939;DHT22;16799;50.844;5.304;2022-08-01T08:20:46;22.20;99.90
29939;DHT22;16799;50.844;5.304;2022-08-01T08:23:12;22.10;99.90
29939;DHT22;16799;50.844;5.304;2022-08-01T08:25:56;22.20;99.90
29939;DHT22;16799;50.844;5.304;2022-08-01T08:28:22;22.20;99.90
29939;DHT22;16799;50.844;5.304;2022-08-01T08:30:48;22.20;99.90
29939;DHT22;16799;50.844;5.304;2022-08-01T08:33:13;22.60;99.90
29939;DHT22;16799;50.844;5.304;2022-08-01T08:35:40;22.80;99.90
29939;DHT22;16799;50.844;5.304;2022-08-01T08:38:07;23.40;99.90
29939;DHT22;16799;50.844;5.304;2022-08-01T08:40:35;23.10;99.90
29939;DHT22;16799;50.844;5.304;2022-08-01T08:43:03;23.10;99.90
29939;DHT22;16799;50.844;5.304;2022-08-01T08:45:29;23.00;99.90
29939;DHT22;16799;50.844;5.304;2022-08-01T08:47:56;23.40;99.90
29939;DHT22;16799;50.844;5.304;2022-08-01T08:50:25;23.50;99.90
29939;DHT22;16799;50.844;5.304;2022-08-01T08:52:52;23.60;99.90
29939;DHT22;16799;50.844;5.304;2022-08-01T08:55:20;23.70;99.90
29939;DHT22;16799;50.844;5.304;2022-08-01T08:57:47;23.70;99.90
29939;DHT22;16799;50.844;5.304;2022-08-01T09:00:14;24.10;99.90
29939;DHT22;16799;50.844;5.304;2022-08-01T09:02:45;24.80;99.90
29939;DHT22;16799;50.844;5.304;2022-08-01T09:05:12;25.30;99.90
29939;DHT22;16799;50.844;5.304;2022-08-01T09:07:38;25.80;99.50
29939;DHT22;16799;50.844;5.304;2022-08-01T09:10:04;26.30;98.60
29939;DHT22;16799;50.844;5.304;2022-08-01T09:12:30;27.20;97.00
29939;DHT22;16799;50.844;5.304;2022-08-01T09:14:56;27.60;95.20
29939;DHT22;16799;50.844;5.304;2022-08-01T09:17:22;27.80;94.10
29939;DHT22;16799;50.844;5.304;2022-08-01T09:19:55;27.10;94.00
29939;DHT22;16799;50.844;5.304;2022-08-01T09:22:23;26.40;93.20
29939;DHT22;16799;50.844;5.304;2022-08-01T09:25:07;25.20;95.40
29939;DHT22;16799;50.844;5.304;2022-08-01T09:27:35;24.70;97.50
29939;DHT22;16799;50.844;5.304;2022-08-01T09:32:35;26.20;94.80
29939;DHT22;16799;50.844;5.304;2022-08-01T09:35:26;26.30;93.40
29939;DHT22;16799;50.844;5.304;2022-08-01T09:38:18;26.70;92.00
29939;DHT22;16799;50.844;5.304;2022-08-01T09:43:14;25.20;95.20
29939;DHT22;16799;50.844;5.304;2022-08-01T09:45:39;24.90;96.80
29939;DHT22;16799;50.844;5.304;2022-08-01T09:48:06;24.80;96.90
29939;DHT22;16799;50.844;5.304;2022-08-01T09:50:40;25.30;96.20
29939;DHT22;16799;50.844;5.304;2022-08-01T09:53:06;26.40;95.30
29939;DHT22;16799;50.844;5.304;2022-08-01T09:55:32;26.50;94.40
29939;DHT22;16799;50.844;5.304;2022-08-01T09:57:57;26.30;92.90
29939;DHT22;16799;50.844;5.304;2022-08-01T10:00:26;26.20;92.20
29939;DHT22;16799;50.844;5.304;2022-08-01T10:02:52;26.30;93.00
29939;DHT22;16799;50.844;5.304;2022-08-01T10:05:18;26.90;92.40
29939;DHT22;16799;50.844;5.304;2022-08-01T10:08:00;27.40;91.10
29939;DHT22;16799;50.844;5.304;2022-08-01T10:10:27;26.60;92.40
29939;DHT22;16799;50.844;5.304;2022-08-01T10:12:55;26.10;93.50
29939;DHT22;16799;50.844;5.304;2022-08-01T10:15:21;26.20;94.50
29939;DHT22;16799;50.844;5.304;2022-08-01T10:17:53;26.30;92.60
29939;DHT22;16799;50.844;5.304;2022-08-01T10:20:24;26.40;92.50
29939;DHT22;16799;50.844;5.304;2022-08-01T10:22:53;26.40;93.40
29939;DHT22;16799;50.844;5.304;2022-08-01T10:25:20;26.60;92.80
29939;DHT22;16799;50.844;5.304;2022-08-01T10:27:49;26.30;92.70
29939;DHT22;16799;50.844;5.304;2022-08-01T10:30:15;26.20;92.90
29939;DHT22;16799;50.844;5.304;2022-08-01T10:32:41;26.80;92.20
29939;DHT22;16799;50.844;5.304;2022-08-01T10:35:08;27.20;91.40
29939;DHT22;16799;50.844;5.304;2022-08-01T10:37:35;27.00;90.40
29939;DHT22;16799;50.844;5.304;2022-08-01T10:40:01;26.50;91.80
29939;DHT22;16799;50.844;5.304;2022-08-01T10:42:27;26.40;91.90
29939;DHT22;16799;50.844;5.304;2022-08-01T10:44:54;26.60;91.00
29939;DHT22;16799;50.844;5.304;2022-08-01T10:47:37;26.40;90.10
29939;DHT22;16799;50.844;5.304;2022-08-01T10:50:11;26.80;90.10
29939;DHT22;16799;50.844;5.304;2022-08-01T10:52:38;27.30;88.30
29939;DHT22;16799;50.844;5.304;2022-08-01T10:55:06;27.30;86.80
29939;DHT22;16799;50.844;5.304;2022-08-01T10:57:46;27.30;87.00
29939;DHT22;16799;50.844;5.304;2022-08-01T11:00:20;27.30;86.10
29939;DHT22;16799;50.844;5.304;2022-08-01T11:03:03;27.60;84.00
29939;DHT22;16799;50.844;5.304;2022-08-01T11:05:33;27.50;85.10
29939;DHT22;16799;50.844;5.304;2022-08-01T11:08:22;27.80;84.20
29939;DHT22;16799;50.844;5.304;2022-08-01T11:10:48;27.60;84.00
29939;DHT22;16799;50.844;5.304;2022-08-01T11:14:02;27.30;82.80
29939;DHT22;16799;50.844;5.304;2022-08-01T11:16:40;28.00;81.80
29939;DHT22;16799;50.844;5.304;2022-08-01T11:19:07;28.70;81.10
29939;DHT22;16799;50.844;5.304;2022-08-01T11:27:20;31.20;72.20
29939;DHT22;16799;50.844;5.304;2022-08-01T11:32:54;30.30;73.30
29939;DHT22;16799;50.844;5.304;2022-08-01T11:35:24;29.40;76.20
29939;DHT22;16799;50.844;5.304;2022-08-01T11:37:53;29.30;76.10
29939;DHT22;16799;50.844;5.304;2022-08-01T11:40:25;29.50;75.80
29939;DHT22;16799;50.844;5.304;2022-08-01T11:45:52;28.30;78.80
29939;DHT22;16799;50.844;5.304;2022-08-01T11:48:22;28.70;77.40
29939;DHT22;16799;50.844;5.304;2022-08-01T11:50:50;28.50;77.50
29939;DHT22;16799;50.844;5.304;2022-08-01T11:53:16;28.10;76.30
29939;DHT22;16799;50.844;5.304;2022-08-01T11:55:48;28.10;77.50
29939;DHT22;16799;50.844;5.304;2022-08-01T11:58:15;28.80;75.30
29939;DHT22;16799;50.844;5.304;2022-08-01T12:00:41;29.40;74.40
29939;DHT22;16799;50.844;5.304;2022-08-01T12:03:08;29.50;75.10
29939;DHT22;16799;50.844;5.304;2022-08-01T12:05:36;28.90;74.00
29939;DHT22;16799;50.844;5.304;2022-08-01T12:08:05;28.50;75.70
29939;DHT22;16799;50.844;5.304;2022-08-01T12:10:34;28.10;75.80
29939;DHT22;16799;50.844;5.304;2022-08-01T12:13:05;28.80;75.80
29939;DHT22;16799;50.844;5.304;2022-08-01T12:15:38;28.90;75.40
29939;DHT22;16799;50.844;5.304;2022-08-01T12:18:05;28.50;76.50
29939;DHT22;16799;50.844;5.304;2022-08-01T12:20:33;28.40;74.20
29939;DHT22;16799;50.844;5.304;2022-08-01T12:23:02;28.00;74.70
29939;DHT22;16799;50.844;5.304;2022-08-01T12:25:28;27.90;74.90
29939;DHT22;16799;50.844;5.304;2022-08-01T12:27:55;28.80;75.10
29939;DHT22;16799;50.844;5.304;2022-08-01T12:30:24;29.70;71.10
29939;DHT22;16799;50.844;5.304;2022-08-01T12:32:51;30.10;70.70
29939;DHT22;16799;50.844;5.304;2022-08-01T12:35:19;30.50;69.80
29939;DHT22;16799;50.844;5.304;2022-08-01T12:37:49;30.50;68.70
29939;DHT22;16799;50.844;5.304;2022-08-01T12:40:21;30.70;68.30
29939;DHT22;16799;50.844;5.304;2022-08-01T12:42:55;30.80;67.60
29939;DHT22;16799;50.844;5.304;2022-08-01T12:45:26;31.00;66.80
29939;DHT22;16799;50.844;5.304;2022-08-01T12:47:53;31.50;66.30
29939;DHT22;16799;50.844;5.304;2022-08-01T12:50:22;32.50;65.10
29939;DHT22;16799;50.844;5.304;2022-08-01T12:52:49;32.40;64.50
29939;DHT22;16799;50.844;5.304;2022-08-01T12:55:17;32.30;63.90
29939;DHT22;16799;50.844;5.304;2022-08-01T12:57:50;31.60;65.40
29939;DHT22;16799;50.844;5.304;2022-08-01T13:00:25;30.90;64.70
29939;DHT22;16799;50.844;5.304;2022-08-01T13:03:19;31.50;67.50
29939;DHT22;16799;50.844;5.304;2022-08-01T13:08:19;34.70;59.60
29939;DHT22;16799;50.844;5.304;2022-08-01T13:10:45;35.90;57.40
29939;DHT22;16799;50.844;5.304;2022-08-01T13:13:12;36.90;56.80
29939;DHT22;16799;50.844;5.304;2022-08-01T13:15:40;36.50;56.80
29939;DHT22;16799;50.844;5.304;2022-08-01T13:18:30;37.80;54.50
29939;DHT22;16799;50.844;5.304;2022-08-01T13:21:13;38.30;53.00
29939;DHT22;16799;50.844;5.304;2022-08-01T13:23:40;36.20;54.90
29939;DHT22;16799;50.844;5.304;2022-08-01T13:26:06;35.80;57.60
29939;DHT22;16799;50.844;5.304;2022-08-01T13:28:33;35.40;55.80
29939;DHT22;16799;50.844;5.304;2022-08-01T13:30:59;34.70;55.80
29939;DHT22;16799;50.844;5.304;2022-08-01T13:33:27;33.50;57.60
29939;DHT22;16799;50.844;5.304;2022-08-01T13:35:54;31.70;59.80
29939;DHT22;16799;50.844;5.304;2022-08-01T13:38:21;30.60;61.30
29939;DHT22;16799;50.844;5.304;2022-08-01T13:41:07;30.60;63.10
29939;DHT22;16799;50.844;5.304;2022-08-01T13:43:33;30.90;61.10
29939;DHT22;16799;50.844;5.304;2022-08-01T13:46:01;29.80;63.10
29939;DHT22;16799;50.844;5.304;2022-08-01T13:48:31;29.50;62.80
29939;DHT22;16799;50.844;5.304;2022-08-01T13:50:57;29.80;62.80
29939;DHT22;16799;50.844;5.304;2022-08-01T13:53:22;30.90;61.60
29939;DHT22;16799;50.844;5.304;2022-08-01T13:55:48;32.00;60.60
29939;DHT22;16799;50.844;5.304;2022-08-01T13:58:14;33.50;57.90
29939;DHT22;16799;50.844;5.304;2022-08-01T14:00:40;33.00;58.40
29939;DHT22;16799;50.844;5.304;2022-08-01T14:03:05;33.20;57.90
29939;DHT22;16799;50.844;5.304;2022-08-01T14:05:31;34.30;57.60
29939;DHT22;16799;50.844;5.304;2022-08-01T14:07:57;34.80;55.60
29939;DHT22;16799;50.844;5.304;2022-08-01T14:10:23;33.10;57.40
29939;DHT22;16799;50.844;5.304;2022-08-01T14:12:49;33.20;57.60
29939;DHT22;16799;50.844;5.304;2022-08-01T14:15:15;33.30;57.10
29939;DHT22;16799;50.844;5.304;2022-08-01T14:17:41;32.20;58.40
29939;DHT22;16799;50.844;5.304;2022-08-01T14:20:07;31.70;59.20
29939;DHT22;16799;50.844;5.304;2022-08-01T14:22:33;31.30;59.20
29939;DHT22;16799;50.844;5.304;2022-08-01T14:24:59;30.90;59.30
29939;DHT22;16799;50.844;5.304;2022-08-01T14:27:25;31.40;59.20
29939;DHT22;16799;50.844;5.304;2022-08-01T14:29:50;31.40;57.20
29939;DHT22;16799;50.844;5.304;2022-08-01T14:32:16;31.80;57.40
29939;DHT22;16799;50.844;5.304;2022-08-01T14:34:41;30.70;58.80
29939;DHT22;16799;50.844;5.304;2022-08-01T14:37:08;29.90;60.00
29939;DHT22;16799;50.844;5.304;2022-08-01T14:39:33;29.40;62.40
29939;DHT22;16799;50.844;5.304;2022-08-01T14:41:59;30.70;61.30
29939;DHT22;16799;50.844;5.304;2022-08-01T14:44:24;33.30;57.30
29939;DHT22;16799;50.844;5.304;2022-08-01T14:46:50;35.30;55.40
29939;DHT22;16799;50.844;5.304;2022-08-01T14:49:16;37.10;52.70
29939;DHT22;16799;50.844;5.304;2022-08-01T14:51:41;39.10;49.70
29939;DHT22;16799;50.844;5.304;2022-08-01T14:54:07;40.30;49.30
29939;DHT22;16799;50.844;5.304;2022-08-01T14:56:33;41.60;48.20
29939;DHT22;16799;50.844;5.304;2022-08-01T14:58:59;42.10;47.30
29939;DHT22;16799;50.844;5.304;2022-08-01T15:01:24;41.50;46.80
29939;DHT22;16799;50.844;5.304;2022-08-01T15:03:50;40.30;48.00
29939;DHT22;16799;50.844;5.304;2022-08-01T15:06:17;39.30;50.00
29939;DHT22;16799;50.844;5.304;2022-08-01T15:08:42;38.40;49.80
29939;DHT22;16799;50.844;5.304;2022-08-01T15:11:08;37.40;50.60
29939;DHT22;16799;50.844;5.304;2022-08-01T15:13:34;36.50;52.00
29939;DHT22;16799;50.844;5.304;2022-08-01T15:16:00;36.70;52.20
29939;DHT22;16799;50.844;5.304;2022-08-01T15:18:27;36.70;52.60
29939;DHT22;16799;50.844;5.304;2022-08-01T15:20:53;36.20;52.60
29939;DHT22;16799;50.844;5.304;2022-08-01T15:23:18;35.10;53.50
29939;DHT22;16799;50.844;5.304;2022-08-01T15:25:44;34.90;54.00
29939;DHT22;16799;50.844;5.304;2022-08-01T15:28:10;34.10;54.80
29939;DHT22;16799;50.844;5.304;2022-08-01T15:30:36;33.80;56.30
29939;DHT22;16799;50.844;5.304;2022-08-01T15:33:02;33.70;56.40
29939;DHT22;16799;50.844;5.304;2022-08-01T15:35:27;35.50;53.50
29939;DHT22;16799;50.844;5.304;2022-08-01T15:37:53;35.10;52.50
29939;DHT22;16799;50.844;5.304;2022-08-01T15:40:18;35.50;53.40
29939;DHT22;16799;50.844;5.304;2022-08-01T15:42:44;36.90;50.80
29939;DHT22;16799;50.844;5.304;2022-08-01T15:45:10;36.90;49.40
29939;DHT22;16799;50.844;5.304;2022-08-01T15:47:37;36.00;52.00
29939;DHT22;16799;50.844;5.304;2022-08-01T15:50:03;35.30;51.90
29939;DHT22;16799;50.844;5.304;2022-08-01T15:52:29;34.40;53.50
29939;DHT22;16799;50.844;5.304;2022-08-01T15:54:55;35.30;52.40
29939;DHT22;16799;50.844;5.304;2022-08-01T15:57:21;35.80;52.30
29939;DHT22;16799;50.844;5.304;2022-08-01T15:59:46;36.20;51.10
29939;DHT22;16799;50.844;5.304;2022-08-01T16:02:12;36.10;51.10
29939;DHT22;16799;50.844;5.304;2022-08-01T16:04:38;36.50;50.50